Time;durP1;ratioP1;P1;durP2;ratioP2;P2;SDS_P1;SDS_P2;PMS_P1;PMS_P2;Temp;Humidity;BMP_temperature;BMP_pressure;BME280_temperature;BME280_humidity;BME280_pressure;Samples;Min_cycle;Max_cycle;Signal;HPM_P1;HPM_P2
2022/06/28 00:01:34;;;;;;;8.08;7.35;;;;;;;23.38;60.07;100045.00;1751923;80;21827;-61
2022/06/28 00:04:01;;;;;;;7.42;6.80;;;;;;;23.39;60.48;100044.00;1766929;79;21529;-61
2022/06/28 00:06:28;;;;;;;8.80;8.00;;;;;;;23.45;60.51;100046.62;1754229;80;21544;-61
2022/06/28 00:08:54;;;;;;;9.30;6.75;;;;;;;23.45;60.51;100046.62;1748932;79;21544;-61
2022/06/28 00:11:21;;;;;;;9.70;8.23;;;;;;;23.44;60.43;100044.94;1746015;80;21592;-62
2022/06/28 00:13:48;;;;;;;10.10;7.85;;;;;;;23.34;59.58;100042.24;1756529;80;21997;-61
2022/06/28 00:16:16;;;;;;;11.48;8.00;;;;;;;23.34;59.58;100042.24;1753757;79;21406;-61
2022/06/28 00:18:43;;;;;;;9.30;8.38;;;;;;;23.28;59.92;100042.30;1750990;80;20962;-62
2022/06/28 00:21:09;;;;;;;11.35;8.53;;;;;;;23.19;59.98;100036.42;1754453;79;21556;-61
2022/06/28 00:23:38;;;;;;;9.23;8.37;;;;;;;23.12;60.13;100040.63;1749163;80;21442;-61
2022/06/28 00:26:06;;;;;;;9.70;8.60;;;;;;;23.11;60.43;100041.13;1756024;79;21727;-61
2022/06/28 00:28:34;;;;;;;9.73;8.35;;;;;;;23.15;60.66;100036.81;1757588;80;21406;-62
2022/06/28 00:31:03;;;;;;;10.80;9.78;;;;;;;23.13;60.89;100041.84;1754080;80;21573;-61
2022/06/28 00:33:30;;;;;;;15.85;9.53;;;;;;;23.11;60.75;100040.26;1712551;80;21463;-61
2022/06/28 00:35:56;;;;;;;15.47;10.33;;;;;;;23.08;60.96;100036.53;1691082;83;21566;-61
2022/06/28 00:38:23;;;;;;;12.53;10.80;;;;;;;23.04;61.21;100031.93;1703709;83;21850;-60
2022/06/28 00:40:52;;;;;;;11.50;9.90;;;;;;;23.05;61.01;100036.29;1699056;83;21514;-61
2022/06/28 00:43:20;;;;;;;14.55;10.18;;;;;;;23.05;61.31;100030.92;1693343;83;21561;-61
2022/06/28 00:45:47;;;;;;;13.13;10.63;;;;;;;23.12;60.96;100026.72;1698968;82;21475;-61
2022/06/28 00:48:15;;;;;;;13.93;10.93;;;;;;;23.12;60.96;100026.72;1755909;79;21409;-61
2022/06/28 00:50:42;;;;;;;11.08;9.43;;;;;;;23.11;60.48;100031.74;1744742;80;21742;-61
2022/06/28 00:53:12;;;;;;;12.25;10.85;;;;;;;23.08;60.43;100028.48;1744380;80;21482;-60
2022/06/28 00:55:39;;;;;;;11.03;9.98;;;;;;;23.05;60.55;100031.42;1755589;80;21513;-61
2022/06/28 00:58:05;;;;;;;10.58;9.35;;;;;;;23.02;60.67;100031.66;1747839;80;21426;-62
2022/06/28 01:00:36;;;;;;;11.97;10.05;;;;;;;22.97;60.72;100028.05;1751639;80;21391;-61
2022/06/28 01:03:05;;;;;;;10.35;9.35;;;;;;;22.93;61.17;100028.81;1724476;80;21945;-61
2022/06/28 01:05:34;;;;;;;12.63;9.15;;;;;;;22.96;61.13;100033.55;1745685;80;21495;-61
2022/06/28 01:08:01;;;;;;;;;;;;;;;22.94;61.28;100031.87;1728424;80;21102;-61
2022/06/28 01:10:29;;;;;;;11.18;10.03;;;;;;;22.94;61.77;100037.23;1752907;80;20434;-61
2022/06/28 01:12:56;;;;;;;11.15;10.13;;;;;;;22.90;61.19;100033.59;1744381;80;22004;-61
2022/06/28 01:15:23;;;;;;;11.80;9.45;;;;;;;22.86;61.19;100024.14;1747693;79;21924;-61
2022/06/28 01:17:54;;;;;;;11.40;9.25;;;;;;;22.85;61.32;100033.15;1754282;80;21423;-61
2022/06/28 01:20:23;;;;;;;11.22;10.05;;;;;;;22.80;61.20;100024.19;1754637;80;20953;-61
2022/06/28 01:22:55;;;;;;;12.37;10.08;;;;;;;22.74;61.54;100028.25;1752999;80;21499;-61
2022/06/28 01:25:23;;;;;;;10.75;9.65;;;;;;;22.71;61.74;100023.16;1751018;80;21502;-61
2022/06/28 01:27:51;;;;;;;11.45;9.63;;;;;;;22.70;61.95;100027.33;1742002;80;21943;-61
2022/06/28 01:30:18;;;;;;;11.48;9.98;;;;;;;22.65;62.18;100025.04;1748631;80;21613;-62
2022/06/28 01:32:47;;;;;;;11.08;9.78;;;;;;;22.62;62.40;100027.13;1738764;80;21402;-61
2022/06/28 01:35:14;;;;;;;11.60;10.15;;;;;;;22.61;62.69;100027.63;1748282;80;21443;-61
2022/06/28 01:37:41;;;;;;;11.05;10.05;;;;;;;22.59;62.77;100026.08;1756708;80;21465;-61
2022/06/28 01:40:09;;;;;;;11.73;10.48;;;;;;;22.53;63.07;100028.30;1748079;79;21749;-61
2022/06/28 01:42:36;;;;;;;11.55;9.93;;;;;;;22.50;63.21;100027.22;1724804;80;21411;-61
2022/06/28 01:45:05;;;;;;;13.95;10.88;;;;;;;22.47;63.35;100027.50;1745219;80;21491;-61
2022/06/28 01:47:36;;;;;;;12.28;10.75;;;;;;;22.46;63.92;100034.33;1752933;79;21418;-61
2022/06/28 01:50:23;;;;;;;12.13;10.80;;;;;;;22.44;63.68;100030.94;1752684;80;21521;-61
2022/06/28 01:52:49;;;;;;;19.45;11.45;;;;;;;22.44;63.96;100031.78;1761570;79;21882;-61
2022/06/28 01:55:34;;;;;;;12.73;10.15;;;;;;;22.43;64.14;100023.87;1750627;80;21526;-60
2022/06/28 01:58:03;;;;;;;11.55;10.40;;;;;;;22.43;64.14;100023.87;1748222;80;21502;-61
2022/06/28 02:00:33;;;;;;;10.93;9.80;;;;;;;22.38;64.50;100030.10;1756001;80;21495;-60
2022/06/28 02:03:00;;;;;;;11.85;10.75;;;;;;;22.41;64.52;100033.87;1751116;80;20997;-60
2022/06/28 02:05:45;;;;;;;13.58;10.32;;;;;;;22.48;64.23;100031.02;1757836;80;21952;-61
2022/06/28 02:08:12;;;;;;;10.63;9.63;;;;;;;22.49;64.32;100034.05;1748678;80;20961;-61
2022/06/28 02:10:40;;;;;;;11.88;10.35;;;;;;;22.46;64.17;100026.30;1750802;80;20981;-62
2022/06/28 02:13:08;;;;;;;11.08;9.60;;;;;;;22.48;64.21;100031.86;1755206;80;21486;-60
2022/06/28 02:15:35;;;;;;;11.55;10.43;;;;;;;22.51;64.22;100032.11;1755821;80;21040;-61
2022/06/28 02:18:01;;;;;;;13.58;10.30;;;;;;;22.50;64.39;100037.94;1753973;80;21695;-61
2022/06/28 02:20:28;;;;;;;13.98;10.13;;;;;;;22.51;64.33;100035.62;1758263;79;21529;-61
2022/06/28 02:22:55;;;;;;;11.93;10.80;;;;;;;22.55;64.21;100033.03;1753275;80;21423;-61
2022/06/28 02:25:22;;;;;;;12.25;10.85;;;;;;;22.58;64.19;100031.91;1758523;80;21126;-61
2022/06/28 02:27:49;;;;;;;15.32;10.50;;;;;;;22.60;64.27;100026.42;1751757;80;21593;-62
2022/06/28 02:30:16;;;;;;;12.15;10.95;;;;;;;22.61;64.56;100022.27;1759064;79;22020;-62
2022/06/28 02:32:43;;;;;;;12.33;11.10;;;;;;;22.61;64.66;100024.11;1756724;80;21411;-62
2022/06/28 02:40:40;;;;;;;11.63;10.53;;;;;;;22.71;64.44;100020.97;1758791;79;21560;-60
2022/06/28 02:43:07;;;;;;;11.63;10.58;;;;;;;22.72;64.66;100026.70;1752841;80;21900;-61
2022/06/28 02:45:37;;;;;;;11.30;10.20;;;;;;;22.79;65.03;100028.34;1725165;82;21428;-61
2022/06/28 02:48:05;;;;;;;12.03;10.93;;;;;;;22.79;65.03;100028.34;1680843;83;21492;-61
2022/06/28 02:50:32;;;;;;;11.00;9.90;;;;;;;22.84;65.01;100031.47;1702679;82;21499;-61
2022/06/28 02:52:59;;;;;;;12.98;11.10;;;;;;;22.82;64.91;100026.23;1694386;82;21565;-61
2022/06/28 02:55:26;;;;;;;11.30;10.30;;;;;;;22.82;64.98;100027.58;1688150;83;21917;-61
2022/06/28 03:00:42;;;;;;;10.90;9.95;;;;;;;22.38;68.38;100039.02;1773686;78;24510;-61
2022/06/28 03:03:09;;;;;;;11.03;9.95;;;;;;;22.85;65.62;100028.66;1734491;81;21072;-60
2022/06/28 03:05:36;;;;;;;11.43;10.25;;;;;;;22.91;65.39;100028.61;1732652;80;21765;-60
2022/06/28 03:08:03;;;;;;;10.35;9.50;;;;;;;22.97;65.71;100028.56;1738347;79;21569;-60
2022/06/28 03:10:32;;;;;;;10.88;9.85;;;;;;;23.05;65.85;100030.92;1729136;80;21505;-60
2022/06/28 03:12:59;;;;;;;10.90;9.63;;;;;;;23.11;65.86;100031.74;1739617;80;21577;-60
2022/06/28 03:15:26;;;;;;;10.50;9.70;;;;;;;23.16;66.01;100030.48;1701957;83;21509;-60
2022/06/28 03:17:54;;;;;;;10.63;9.63;;;;;;;23.25;66.01;100035.86;1701757;83;21907;-60
2022/06/28 03:20:21;;;;;;;10.58;9.65;;;;;;;23.29;65.93;100032.41;1700821;83;21479;-61
2022/06/28 03:22:48;;;;;;;13.65;10.68;;;;;;;23.30;65.55;100031.41;1696716;81;21582;-61
2022/06/28 03:25:15;;;;;;;13.13;10.17;;;;;;;23.32;66.58;100037.01;1691176;83;21523;-61
2022/06/28 03:27:42;;;;;;;11.30;10.30;;;;;;;23.37;66.88;100033.89;1686272;83;21982;-61
2022/06/28 03:30:09;;;;;;;11.57;10.08;;;;;;;23.43;66.65;100033.36;1700084;82;21956;-61
2022/06/28 03:32:37;;;;;;;10.60;9.48;;;;;;;23.55;66.76;100028.71;1672528;83;21006;-61
2022/06/28 03:35:06;;;;;;;11.43;10.25;;;;;;;23.61;67.29;100036.20;1697919;82;21050;-61
2022/06/28 03:37:35;;;;;;;12.13;9.83;;;;;;;23.70;67.26;100035.35;1697581;82;21626;-61
2022/06/28 03:40:05;;;;;;;10.90;9.80;;;;;;;23.70;67.26;100035.35;1701112;83;21628;-62
2022/06/28 03:42:32;;;;;;;11.90;9.60;;;;;;;23.79;67.13;100036.39;1672003;83;21859;-62
2022/06/28 03:44:59;;;;;;;14.83;9.83;;;;;;;23.93;66.64;100038.29;1706401;82;21435;-61
2022/06/28 03:47:25;;;;;;;10.90;9.93;;;;;;;24.03;66.20;100045.83;1704762;82;21561;-61
2022/06/28 03:50:11;;;;;;;10.80;9.75;;;;;;;24.13;65.53;100036.41;1686014;83;21827;-61
2022/06/28 03:52:39;;;;;;;11.00;9.90;;;;;;;24.19;64.95;100034.02;1659117;83;21488;-61
2022/06/28 03:55:25;;;;;;;11.10;10.00;;;;;;;24.25;64.38;100040.14;1700658;82;22212;-60
2022/06/28 03:57:52;;;;;;;11.93;10.70;;;;;;;24.30;63.81;100038.39;1698758;82;20962;-60
2022/06/28 04:00:19;;;;;;;10.95;9.95;;;;;;;24.38;63.20;100034.97;1688776;82;21479;-60
2022/06/28 04:02:48;;;;;;;12.55;9.08;;;;;;;24.46;62.98;100039.95;1695381;81;21511;-61
2022/06/28 04:05:16;;;;;;;10.82;9.58;;;;;;;24.61;62.76;100042.22;1686864;82;21609;-61
2022/06/28 04:07:43;;;;;;;11.40;9.20;;;;;;;24.74;62.15;100033.83;1681643;84;21765;-61
2022/06/28 04:10:10;;;;;;;11.48;9.55;;;;;;;24.84;61.63;100032.77;1684424;82;21436;-61
2022/06/28 04:12:38;;;;;;;9.88;8.98;;;;;;;24.90;61.09;100032.67;1682228;82;21059;-61
2022/06/28 04:15:16;;;;;;;9.75;8.95;;;;;;;24.96;60.94;100025.84;1681655;82;21045;-61
2022/06/28 04:17:44;;;;;;;;;;;;;;;25.00;60.93;100024.08;1684423;83;21565;-61
2022/06/28 04:20:28;;;;;;;11.25;9.08;;;;;;;25.05;61.07;100017.75;1609403;86;22196;-61
2022/06/28 04:22:59;;;;;;;12.50;8.85;;;;;;;25.10;60.64;100019.98;1659799;82;21444;-61
2022/06/28 04:25:26;;;;;;;9.73;7.85;;;;;;;25.20;60.90;100014.53;1682819;82;21630;-61
2022/06/28 04:27:56;;;;;;;11.93;8.48;;;;;;;25.34;60.80;100018.10;1688399;83;21594;-61
2022/06/28 04:30:22;;;;;;;10.08;8.35;;;;;;;25.48;60.64;100018.06;1684810;82;20963;-61
2022/06/28 04:32:51;;;;;;;8.23;7.47;;;;;;;25.55;60.38;100020.50;1680082;83;21802;-61
2022/06/28 04:35:19;;;;;;;8.38;7.60;;;;;;;25.62;60.14;100020.74;1681596;82;21585;-62
2022/06/28 04:37:46;;;;;;;9.40;7.77;;;;;;;25.68;60.00;100016.08;1687994;83;21519;-61
2022/06/28 04:40:14;;;;;;;11.12;7.28;;;;;;;25.74;59.92;100018.66;1697164;82;21523;-62
2022/06/28 04:42:46;;;;;;;8.63;7.95;;;;;;;25.81;59.64;100021.08;1686122;82;21557;-60
2022/06/28 04:45:13;;;;;;;;;;;;;;;25.92;59.76;100014.61;1675729;82;21922;-60
2022/06/28 04:47:43;;;;;;;8.78;7.72;;;;;;;26.03;59.91;100013.89;1667494;84;20457;-61
2022/06/28 04:50:10;;;;;;;7.85;7.15;;;;;;;26.13;59.79;100014.30;1639362;85;21457;-61
2022/06/28 04:52:37;;;;;;;8.63;7.62;;;;;;;26.18;59.21;100011.95;1668103;83;21591;-61
2022/06/28 04:55:06;;;;;;;8.63;7.92;;;;;;;26.28;58.63;100012.72;1681033;83;21590;-61
2022/06/28 04:57:41;;;;;;;8.73;7.83;;;;;;;26.35;58.42;100012.43;1685362;82;21707;-62
2022/06/28 05:00:13;;;;;;;10.95;7.97;;;;;;;26.45;58.40;100012.80;1680821;82;21562;-61
2022/06/28 05:02:42;;;;;;;8.05;7.30;;;;;;;26.52;57.64;100017.41;1680795;83;21494;-61
2022/06/28 05:05:10;;;;;;;8.28;7.58;;;;;;;26.57;57.73;100015.58;1681893;82;21484;-61
2022/06/28 05:07:39;;;;;;;8.50;7.80;;;;;;;26.62;57.85;100006.55;1690431;82;21412;-61
2022/06/28 05:10:08;;;;;;;7.42;6.72;;;;;;;26.74;57.72;100005.23;1689759;82;22099;-61
2022/06/28 05:12:38;;;;;;;7.35;6.72;;;;;;;26.87;57.58;100008.00;1688810;82;21491;-62
2022/06/28 05:15:06;;;;;;;13.32;8.10;;;;;;;26.97;57.10;100000.13;1736786;81;21559;-63
2022/06/28 05:17:36;;;;;;;8.50;7.00;;;;;;;27.03;56.75;99987.83;1729635;82;21504;-62
2022/06/28 05:20:04;;;;;;;8.87;7.13;;;;;;;27.16;56.54;99999.48;1719544;81;21503;-62
2022/06/28 05:22:31;;;;;;;7.20;6.55;;;;;;;27.24;56.51;99994.13;1694731;82;21811;-63
2022/06/28 05:25:03;;;;;;;7.35;6.65;;;;;;;27.32;56.21;99990.11;1688980;83;21065;-62
2022/06/28 05:27:30;;;;;;;7.97;6.03;;;;;;;27.42;55.73;99981.86;1688095;83;21439;-58
2022/06/28 05:29:57;;;;;;;7.75;6.20;;;;;;;27.51;55.29;99989.47;1721072;81;21452;-58
2022/06/28 05:32:24;;;;;;;9.70;6.70;;;;;;;27.58;54.88;99983.23;1727540;81;21537;-58
2022/06/28 05:34:50;;;;;;;7.75;6.83;;;;;;;27.65;54.39;99987.95;1729742;80;21779;-58
2022/06/28 05:37:17;;;;;;;6.80;6.20;;;;;;;27.72;54.79;99988.46;1734041;80;21476;-60
2022/06/28 05:39:44;;;;;;;9.75;6.15;;;;;;;27.81;54.53;99988.48;1729439;80;21609;-59
2022/06/28 05:42:10;;;;;;;6.67;6.12;;;;;;;27.86;54.25;99988.31;1717175;81;21550;-59
2022/06/28 05:44:37;;;;;;;13.05;6.28;;;;;;;27.96;53.75;99979.55;1727018;81;21578;-59
2022/06/28 05:47:04;;;;;;;6.75;6.25;;;;;;;28.08;53.59;99985.95;1720521;82;21848;-59
2022/06/28 05:49:31;;;;;;;;;;;;;;;28.18;53.12;99980.35;1733879;82;21460;-58
2022/06/28 05:51:58;;;;;;;6.83;6.20;;;;;;;28.23;52.98;99973.41;1728795;80;20464;-58
2022/06/28 05:54:26;;;;;;;8.63;6.47;;;;;;;28.30;52.66;99977.64;1678452;83;21534;-59
2022/06/28 05:56:52;;;;;;;6.00;5.53;;;;;;;28.37;52.60;99979.13;1726874;81;21092;-59
2022/06/28 05:59:19;;;;;;;6.30;5.50;;;;;;;28.45;53.00;99979.13;1727613;81;21837;-59
2022/06/28 06:01:46;;;;;;;8.00;5.67;;;;;;;28.51;52.01;99977.91;1711589;80;21376;-59
2022/06/28 06:04:12;;;;;;;6.40;5.80;;;;;;;28.61;51.23;99972.31;1739883;80;21483;-59
2022/06/28 06:06:39;;;;;;;6.17;5.20;;;;;;;28.69;50.94;99975.02;1696560;82;21427;-59
2022/06/28 06:09:07;;;;;;;10.90;5.47;;;;;;;28.81;51.18;99980.88;1703636;82;21634;-59
2022/06/28 06:11:35;;;;;;;6.20;5.60;;;;;;;28.91;50.55;99972.05;1700720;82;21605;-59
2022/06/28 06:14:02;;;;;;;8.88;5.37;;;;;;;28.97;50.25;99969.14;1703870;82;21072;-60
2022/06/28 06:16:28;;;;;;;6.42;5.15;;;;;;;29.04;50.15;99971.45;1696556;82;21569;-58
2022/06/28 06:18:57;;;;;;;8.03;4.80;;;;;;;29.15;50.18;99966.70;1702254;82;21620;-58
2022/06/28 06:21:24;;;;;;;5.65;4.70;;;;;;;29.19;49.59;99958.03;1710223;82;26967;-59
2022/06/28 06:23:51;;;;;;;5.67;5.27;;;;;;;29.39;48.93;99958.93;1705545;82;21899;-58
2022/06/28 06:26:24;;;;;;;5.58;5.05;;;;;;;29.61;47.87;99955.86;1650967;82;21519;-59
2022/06/28 06:28:51;;;;;;;7.75;4.83;;;;;;;29.68;47.55;99952.23;1699645;82;21464;-59
2022/06/28 06:31:18;;;;;;;10.37;4.77;;;;;;;29.56;48.23;99949.65;1704928;82;21522;-59
2022/06/28 06:34:02;;;;;;;6.28;4.90;;;;;;;29.65;48.26;99950.44;1706205;82;22311;-58
2022/06/28 06:36:41;;;;;;;4.90;4.47;;;;;;;29.75;47.54;99952.92;1690292;82;21444;-59
2022/06/28 06:39:08;;;;;;;6.58;4.72;;;;;;;29.82;47.26;99944.36;1699312;82;21580;-59
2022/06/28 06:41:36;;;;;;;6.75;4.92;;;;;;;29.92;46.89;99949.02;1697899;82;21463;-58
2022/06/28 06:44:04;;;;;;;10.63;4.85;;;;;;;30.00;46.33;99950.81;1705340;82;21576;-58
2022/06/28 06:46:33;;;;;;;6.72;5.37;;;;;;;30.07;45.91;99946.34;1707005;82;21529;-58
2022/06/28 06:49:00;;;;;;;8.35;5.47;;;;;;;30.15;45.76;99944.88;1707763;82;22015;-59
2022/06/28 06:51:27;;;;;;;8.57;5.13;;;;;;;30.23;45.32;99938.04;1650130;84;21093;-59
2022/06/28 06:53:53;;;;;;;7.53;5.15;;;;;;;30.23;45.32;99938.04;1710028;82;21556;-58
2022/06/28 06:56:20;;;;;;;5.05;4.60;;;;;;;30.37;45.62;99943.16;1705794;82;20962;-58
2022/06/28 06:58:46;;;;;;;5.47;4.90;;;;;;;30.49;45.23;99944.05;1705463;82;21477;-58
2022/06/28 07:01:13;;;;;;;6.47;4.92;;;;;;;30.56;44.84;99941.73;1689796;82;21820;-59
2022/06/28 07:03:44;;;;;;;6.35;5.62;;;;;;;30.61;43.88;99942.52;1698130;83;21443;-59
2022/06/28 07:06:09;;;;;;;7.28;5.47;;;;;;;30.65;44.07;99936.54;1696080;83;21550;-58
2022/06/28 07:08:36;;;;;;;4.83;4.42;;;;;;;30.76;44.25;99935.22;1719948;80;21013;-59
2022/06/28 07:11:04;;;;;;;6.60;5.20;;;;;;;30.90;44.26;99948.45;1736469;80;21103;-59
2022/06/28 07:13:31;;;;;;;9.03;4.50;;;;;;;31.00;43.51;99937.28;1731114;80;21788;-59
2022/06/28 07:15:58;;;;;;;4.97;4.33;;;;;;;31.07;42.38;99931.94;1738165;80;21074;-59
2022/06/28 07:18:24;;;;;;;4.47;4.08;;;;;;;31.10;41.44;99939.69;1737251;80;21566;-62
2022/06/28 07:20:55;;;;;;;4.67;4.30;;;;;;;31.10;41.52;99926.97;1695359;82;21538;-62
2022/06/28 07:23:23;;;;;;;4.83;4.42;;;;;;;31.20;41.36;99933.44;1691875;83;21452;-61
2022/06/28 07:25:49;;;;;;;4.55;4.05;;;;;;;31.26;40.37;99936.73;1737244;80;22021;-63
2022/06/28 07:28:16;;;;;;;4.80;3.67;;;;;;;31.33;40.88;99933.57;1734515;80;21546;-61
2022/06/28 07:30:43;;;;;;;6.97;3.63;;;;;;;31.38;40.06;99936.55;1740472;80;21474;-62
2022/06/28 07:33:09;;;;;;;4.87;4.30;;;;;;;31.42;40.31;99941.08;1695271;82;21518;-61
2022/06/28 07:35:36;;;;;;;3.75;3.50;;;;;;;31.52;40.17;99939.42;1729488;80;21522;-61
2022/06/28 07:38:03;;;;;;;4.92;3.83;;;;;;;31.62;39.35;99943.47;1731037;80;21776;-61
2022/06/28 07:40:47;;;;;;;3.67;3.47;;;;;;;31.71;38.78;99952.34;1645399;85;20987;-60
2022/06/28 07:43:32;;;;;;;4.83;4.20;;;;;;;31.84;38.82;99945.34;1683698;83;21732;-61
2022/06/28 07:46:04;;;;;;;4.45;4.10;;;;;;;31.86;38.68;99949.53;1680038;83;21541;-61
2022/06/28 07:48:31;;;;;;;4.78;4.30;;;;;;;31.81;38.66;99954.18;1736707;80;21573;-60
2022/06/28 07:53:44;;;;;;;5.33;4.45;;;;;;;31.76;38.53;99949.88;1726418;80;21431;-61
2022/06/28 07:56:13;;;;;;;6.33;4.53;;;;;;;31.78;38.69;99945.08;1730525;80;21057;-60
2022/06/28 07:58:40;;;;;;;7.97;4.37;;;;;;;31.79;38.84;99945.91;1726690;80;21538;-60
2022/06/28 08:01:09;;;;;;;4.70;4.30;;;;;;;31.86;39.13;99949.53;1687046;83;21585;-60
2022/06/28 08:03:36;;;;;;;4.53;3.95;;;;;;;31.95;38.35;99952.95;1733556;80;21495;-59
2022/06/28 08:06:03;;;;;;;4.60;4.12;;;;;;;32.01;37.61;99945.36;1731777;80;21560;-60
2022/06/28 08:08:32;;;;;;;4.50;4.20;;;;;;;32.05;38.45;99944.48;1725287;80;21468;-60
2022/06/28 08:10:59;;;;;;;4.70;3.80;;;;;;;32.17;37.85;99941.01;1697269;83;21471;-60
2022/06/28 08:13:28;;;;;;;3.60;3.30;;;;;;;32.33;38.04;99939.00;1730173;80;21593;-60
2022/06/28 08:15:54;;;;;;;5.75;3.83;;;;;;;32.46;36.91;99936.35;1726908;80;22081;-60
2022/06/28 08:18:22;;;;;;;3.30;3.10;;;;;;;32.63;36.60;99930.61;1722239;80;28603;-60
2022/06/28 08:20:49;;;;;;;3.75;3.55;;;;;;;32.81;36.88;99921.87;1684938;83;20970;-60
2022/06/28 08:23:16;;;;;;;5.85;4.28;;;;;;;32.95;37.39;99928.52;1728726;80;21482;-60
2022/06/28 08:25:46;;;;;;;8.18;3.20;;;;;;;33.07;35.93;99924.66;1729449;82;21510;-60
2022/06/28 08:28:13;;;;;;;3.62;3.33;;;;;;;33.16;35.19;99917.19;1722814;80;21828;-60
2022/06/28 08:30:40;;;;;;;3.45;3.25;;;;;;;33.20;35.05;99918.44;1703345;83;26738;-60
2022/06/28 08:33:08;;;;;;;;;;;;;;;33.23;35.68;99919.90;1739293;80;21575;-61
2022/06/28 08:35:35;;;;;;;7.95;3.58;;;;;;;33.19;34.82;99917.28;1739320;80;20256;-59
2022/06/28 08:38:05;;;;;;;5.90;3.42;;;;;;;33.09;36.11;99921.20;1738158;80;21565;-61
2022/06/28 08:40:33;;;;;;;8.13;3.83;;;;;;;33.07;36.61;99917.02;1695364;83;21804;-60
2022/06/28 08:43:00;;;;;;;4.95;3.90;;;;;;;33.07;36.40;99922.47;1729910;80;21416;-61
2022/06/28 08:45:27;;;;;;;5.12;3.30;;;;;;;33.06;36.41;99916.19;1736653;80;20981;-61
2022/06/28 08:47:55;;;;;;;3.55;3.27;;;;;;;33.05;35.17;99910.41;1739225;80;21837;-59
2022/06/28 08:50:45;;;;;;;4.47;3.60;;;;;;;33.06;35.64;99913.47;1742863;80;21503;-60
2022/06/28 08:53:11;;;;;;;3.65;3.37;;;;;;;33.14;35.82;99914.66;1667081;84;21637;-62
2022/06/28 08:55:38;;;;;;;8.03;3.87;;;;;;;33.26;35.40;99909.43;1640429;85;21548;-60
2022/06/28 08:58:07;;;;;;;3.47;3.12;;;;;;;33.28;34.67;99897.80;1666361;84;21068;-61
2022/06/28 09:00:35;;;;;;;4.25;3.65;;;;;;;33.28;34.97;99903.25;1669410;84;21572;-60
2022/06/28 09:03:01;;;;;;;3.42;3.20;;;;;;;33.37;34.15;99909.34;1669121;85;21894;-63
2022/06/28 09:05:28;;;;;;;4.57;3.00;;;;;;;33.47;34.45;99900.22;1630711;85;21615;-61
2022/06/28 09:07:56;;;;;;;4.35;3.50;;;;;;;33.56;34.04;99900.33;1633688;86;21577;-60
2022/06/28 09:10:22;;;;;;;3.70;3.22;;;;;;;33.66;33.65;99902.69;1665336;84;22219;-60
2022/06/28 09:12:55;;;;;;;4.60;3.12;;;;;;;33.69;33.79;99898.69;1668551;85;29022;-60
2022/06/28 09:15:25;;;;;;;3.40;3.10;;;;;;;33.70;34.05;99888.95;1667576;85;21538;-60
2022/06/28 09:17:55;;;;;;;6.60;3.47;;;;;;;33.62;33.63;99901.37;1670708;85;21792;-60
2022/06/28 09:20:27;;;;;;;3.65;2.92;;;;;;;33.53;33.53;99907.58;1676295;85;21519;-58
2022/06/28 09:22:54;;;;;;;3.67;3.45;;;;;;;33.46;33.79;99897.20;1630279;85;21528;-60
2022/06/28 09:25:27;;;;;;;3.00;2.70;;;;;;;33.53;33.72;99895.81;1676229;85;21482;-59
2022/06/28 09:27:58;;;;;;;3.50;3.20;;;;;;;33.54;33.25;99888.80;1674725;84;21522;-57
2022/06/28 09:30:27;;;;;;;4.05;3.40;;;;;;;33.55;33.04;99886.41;1675875;84;21881;-62
2022/06/28 09:32:54;;;;;;;3.77;3.45;;;;;;;33.63;33.15;99888.08;1639853;85;21531;-58
2022/06/28 09:35:24;;;;;;;4.70;3.83;;;;;;;33.64;32.97;99885.67;1634608;85;21531;-59
2022/06/28 09:37:51;;;;;;;5.03;3.40;;;;;;;33.63;33.28;99885.35;1647533;85;21051;-59
2022/06/28 09:40:24;;;;;;;4.62;3.40;;;;;;;33.71;32.89;99880.23;1675077;85;21706;-59
2022/06/28 09:43:12;;;;;;;4.72;3.50;;;;;;;33.82;32.63;99873.31;1680575;83;22201;-61
2022/06/28 09:45:42;;;;;;;3.72;3.35;;;;;;;33.95;33.53;99866.46;1640430;85;21520;-59
2022/06/28 09:48:09;;;;;;;6.22;3.47;;;;;;;34.06;32.93;99864.44;1666223;83;21459;-62
2022/06/28 09:50:36;;;;;;;;;;;;;;;34.21;32.71;99868.81;1654480;85;21506;-59
2022/06/28 09:53:04;;;;;;;4.60;3.77;;;;;;;34.32;32.12;99858.09;1689123;83;20536;-59
2022/06/28 09:55:32;;;;;;;3.65;3.42;;;;;;;34.33;32.05;99853.47;1690552;83;22066;-58
2022/06/28 09:58:00;;;;;;;4.20;3.60;;;;;;;34.41;32.13;99853.21;1696126;82;21545;-60
2022/06/28 10:00:27;;;;;;;3.90;3.60;;;;;;;34.42;31.77;99848.08;1694163;83;21435;-58
2022/06/28 10:02:55;;;;;;;3.62;3.33;;;;;;;34.44;32.29;99845.14;1694769;82;21491;-59
2022/06/28 10:05:23;;;;;;;3.67;3.40;;;;;;;34.51;32.54;99850.87;1691576;82;21054;-60
2022/06/28 10:07:49;;;;;;;3.53;3.33;;;;;;;34.64;32.14;99847.23;1661755;84;21864;-58
2022/06/28 10:10:16;;;;;;;3.58;3.27;;;;;;;34.79;31.34;99853.81;1693400;83;21503;-58
2022/06/28 10:15:35;;;;;;;3.33;3.08;;;;;;;34.78;31.35;99839.00;1700816;82;21570;-60
2022/06/28 10:18:23;;;;;;;4.08;3.67;;;;;;;34.73;31.31;99834.72;1706232;82;21650;-61
2022/06/28 10:20:50;;;;;;;5.92;3.85;;;;;;;34.73;31.63;99826.52;1567545;89;21440;-61
2022/06/28 10:23:40;;;;;;;4.15;3.55;;;;;;;34.84;31.91;99828.55;1550127;89;21541;-60
2022/06/28 10:26:19;;;;;;;6.65;4.00;;;;;;;34.94;32.09;99829.43;1568762;90;21580;-58
2022/06/28 10:29:04;;;;;;;4.37;3.52;;;;;;;35.08;31.51;99825.02;1569047;90;21062;-58
2022/06/28 10:31:36;;;;;;;4.97;3.67;;;;;;;35.23;31.63;99832.92;1579599;89;21562;-59
2022/06/28 10:34:08;;;;;;;6.85;4.12;;;;;;;35.37;30.93;99822.70;1571009;89;21787;-58
2022/06/28 10:36:54;;;;;;;7.65;4.22;;;;;;;35.43;30.94;99820.46;1550431;90;21554;-58
2022/06/28 10:39:29;;;;;;;3.90;3.60;;;;;;;35.52;30.97;99824.27;1540062;90;21536;-59
2022/06/28 10:42:02;;;;;;;4.20;3.70;;;;;;;35.59;30.61;99825.87;1568848;89;21556;-60
2022/06/28 10:44:37;;;;;;;5.03;3.65;;;;;;;35.57;30.44;99821.16;1575527;89;21446;-60
2022/06/28 10:47:09;;;;;;;4.83;3.67;;;;;;;35.66;31.51;99823.08;1589315;88;21625;-61
2022/06/28 10:49:57;;;;;;;4.90;4.47;;;;;;;35.77;31.03;99822.88;1588273;88;21550;-61
2022/06/28 10:52:33;;;;;;;5.53;4.00;;;;;;;35.78;30.02;99819.09;1584460;88;21743;-60
2022/06/28 10:55:05;;;;;;;5.70;4.53;;;;;;;35.63;30.08;99820.25;1586588;88;21562;-60
2022/06/28 10:57:43;;;;;;;6.50;4.17;;;;;;;35.48;30.80;99819.77;1581125;88;21487;-62
2022/06/28 11:00:22;;;;;;;5.67;3.90;;;;;;;35.48;31.37;99813.77;1583113;88;21835;-62
2022/06/28 11:02:56;;;;;;;4.87;3.83;;;;;;;35.54;30.65;99819.41;1586558;88;21511;-62
2022/06/28 11:05:25;;;;;;;4.47;3.85;;;;;;;35.67;29.74;99809.16;1589939;88;21676;-60
2022/06/28 11:08:00;;;;;;;5.67;3.72;;;;;;;35.73;29.82;99809.36;1584986;88;21503;-61
2022/06/28 11:10:28;;;;;;;4.55;4.15;;;;;;;35.77;29.97;99802.36;1578769;88;21581;-60
2022/06/28 11:13:05;;;;;;;6.45;4.08;;;;;;;35.82;30.63;99801.16;1578108;89;21945;-60
2022/06/28 11:15:36;;;;;;;4.53;3.92;;;;;;;35.95;30.22;99801.00;1569367;89;20994;-60
2022/06/28 11:18:15;;;;;;;4.20;3.90;;;;;;;35.94;29.77;99802.09;1556150;90;21544;-60
2022/06/28 11:20:42;;;;;;;6.08;5.30;;;;;;;35.73;30.55;99804.71;1606723;86;21565;-61
2022/06/28 11:23:08;;;;;;;5.15;4.55;;;;;;;35.53;31.59;99799.44;1618001;86;21443;-60
2022/06/28 11:28:21;;;;;;;5.30;4.75;;;;;;;35.35;31.72;99798.03;1609497;86;21458;-59
2022/06/28 11:30:48;;;;;;;4.78;4.33;;;;;;;35.29;31.78;99796.50;1594116;86;21529;-62
2022/06/28 11:33:16;;;;;;;5.10;4.62;;;;;;;35.19;31.69;99794.81;1616092;86;21557;-61
2022/06/28 11:35:43;;;;;;;4.80;4.40;;;;;;;35.12;32.28;99792.63;1615031;86;21451;-61
2022/06/28 11:38:10;;;;;;;4.75;4.40;;;;;;;35.19;32.21;99791.22;1609868;86;21830;-61
2022/06/28 11:40:50;;;;;;;5.25;4.75;;;;;;;35.27;31.61;99790.95;1612126;86;21109;-63
2022/06/28 11:43:25;;;;;;;4.97;4.58;;;;;;;35.26;31.72;99797.47;1606177;87;21646;-61
2022/06/28 11:45:50;;;;;;;4.95;4.50;;;;;;;35.25;31.64;99793.08;1615408;86;21569;-63
2022/06/28 11:48:21;;;;;;;4.72;4.42;;;;;;;35.36;31.55;99795.08;1612687;86;21098;-62
2022/06/28 11:50:52;;;;;;;5.22;4.72;;;;;;;35.47;30.98;99794.84;1609454;87;21862;-63
2022/06/28 11:53:19;;;;;;;4.83;4.47;;;;;;;35.61;30.69;99787.37;1604921;88;21573;-62